Pagina principale
METAR-TAF:

METAR-TAF

Aeroporti :

Aeroporto Internazionale di Dammam-Re Fahd

Dammam, Arabia Saudita

latitudine: 26-28N, longitudine: 049-47E, altezza: 22 m

Osservazione

Il bollettino è stato emesso 21 minuti fa, alle 17:00 UTC
Vento 13 kt da nord-ovest
Temperature 38°C
Umidità 15%
Pressione 1002 hPa
Visibilità: 8000 m

METAR: OEDF 051700Z 32013KT 8000 NSC 38/07 Q1002 NOSIG

Ora: 20:21 (17:21 UTC)

Previsione

Il bollettino è stato emesso 8 ore e 21 minuti fa, alle 09:00 UTC
Previsione valida dal 05 alle 12 UTC al 06 alle 18 UTC
Vento 20 kt da nord/nord-ovest
Visibilità 10 km o più
nessuna nube inferiore a 1500 m e nessun cumulonembo
Probabilità 30% :
Temporaneamente
dal 05 alle 12 UTC al 05 alle 15 UTC
Visibilità: 3000 m
Scaccia polvere alto
Evoluzione graduale
dal 05 alle 16 UTC al 05 alle 18 UTC
Vento 12 kt da ovest/nord-ovest

TAF: OEDF 050900Z 0512/0618 34020KT CAVOK PROB30 TEMPO 0512/0515 3000 BLDU BECMG 0516/0518 30012KT

Osservazioni e previsioni meteorologiche di più di 4000 aeroporti (messaggi METAR e TAF).

Le stazioni disponibili sono rappresentate dai dischi gialli e rossi sulla carta.

Puntare il mouse per vedere il nome della stazione.

Clicca sopra per visualizzare le osservazioni e previsioni meteorologiche.

Per cambiare la mappa : fare clic sui pulsanti verdi con una croce nera per ingrandire, il pulsante verde con un trattino per diminuire, o sulla freccia verde per le mappe adiacenti.


METAR-TAF: